Lady Of Lourdes — WDE5493 — position and weather

sailwx.info

Track history (hours):
 
Tides and Currents Weather Stations Pressure Air Temp Water Temp Dewpoint Dewpoint Depression Visibility Wind Speed Wind Dir Waves Ship Positions

Lady Of Lourdes

Owner: Marquette Transportation Company Gulf-Inland, LLC, Jefferson, LA. More information available from US FCC via Universal Licensing System and Coast Guard Vessel Documentation Center.

Last reported at 2017-Nov-17 14:25 UTC. Time now 2017-Nov-18 06:19 UTC.
Position N 30°04' W 093°36'.

Length 115 m; draft 3 m.

Type: . MMSI: 367367530.

Date/timePositionNaut miles runAvg speedWind from/ knotsBaromVisibWave heightAir tempDewpointWater temp
2017-Nov-17 14:25N 30°04' W 093°36'3 6.4
2017-Nov-17 14:00N 30°04' W 093°33'3 6.4
2017-Nov-17 13:30N 30°04' W 093°29'3 6.4
2017-Nov-17 13:00N 30°04' W 093°26'3 6.1
2017-Nov-17 12:30N 30°04' W 093°22'0 0.1
2017-Nov-17 12:00N 30°04' W 093°22'1 1.4
2017-Nov-17 11:30N 30°04' W 093°22'0 0.0
2017-Nov-17 11:00N 30°04' W 093°22'0 0.1
2017-Nov-17 10:30N 30°04' W 093°22'1 2.1
2017-Nov-17 10:00N 30°04' W 093°23'3 5.8
2017-Nov-17 09:30N 30°04' W 093°26'3 5.3
2017-Nov-17 09:00N 30°04' W 093°29'80 4.1
2017-Nov-16 13:34N 29°30' W 094°52'0 6.8
2017-Nov-16 13:30N 29°30' W 094°52'3 6.9
2017-Nov-16 13:00N 29°33' W 094°55'3 6.6
2017-Nov-16 12:30N 29°36' W 094°57'4 6.6
2017-Nov-16 11:50N 29°40' W 094°58'2 6.9
2017-Nov-16 11:30N 29°42' W 094°60'7 3.4
2017-Nov-16 09:34N 29°47' W 095°05'0 0.0
2017-Nov-16 09:21N 29°47' W 095°05'1 0.8
2017-Nov-16 08:01N 29°46' W 095°05'0 5.1
2017-Nov-16 08:00N 29°46' W 095°05'0 0.0
2017-Nov-16 04:12N 29°46' W 095°05'1 1.0
2017-Nov-16 03:09N 29°47' W 095°05'0 0.0
2017-Nov-16 03:00N 29°47' W 095°05'3 3.1
2017-Nov-16 02:07N 29°44' W 095°03'2 5.6
2017-Nov-16 01:49N 29°44' W 095°02'2 5.4
2017-Nov-16 01:30N 29°42' W 095°01'3 5.6
2017-Nov-16 01:00N 29°40' W 094°59'3 5.8
2017-Nov-16 00:30N 29°38' W 094°58'3 6.7
2017-Nov-16 00:00N 29°35' W 094°56'3 6.9
2017-Nov-15 23:30N 29°32' W 094°53'73 3.3
2017-Nov-15 01:36N 30°04' W 093°37'1 5.5
2017-Nov-15 01:30N 30°04' W 093°37'3 5.5
2017-Nov-15 01:00N 30°04' W 093°34'3 5.6
2017-Nov-15 00:30N 30°04' W 093°30'3 5.6
2017-Nov-15 00:00N 30°04' W 093°27'3 5.7
2017-Nov-14 23:30N 30°04' W 093°24'2 4.5
2017-Nov-14 23:00N 30°04' W 093°21'0 0.0
2017-Nov-14 22:30N 30°04' W 093°21'1 1.7
2017-Nov-14 22:00N 30°04' W 093°22'1 2.3
2017-Nov-14 21:30N 30°04' W 093°24'2 3.9
2017-Nov-14 21:00N 30°04' W 093°26'2 4.2
2017-Nov-14 20:30N 30°04' W 093°28'3 5.3
2017-Nov-14 20:00N 30°04' W 093°31'78 3.7
2017-Nov-13 23:04N 29°29' W 094°52'1 7.2
2017-Nov-13 22:59N 29°30' W 094°52'3 7.2
2017-Nov-13 22:30N 29°32' W 094°54'4 7.5
2017-Nov-13 22:00N 29°36' W 094°57'8 0.2
2017-Nov-12 09:19N 29°29' W 094°52'2 6.4
2017-Nov-12 09:01N 29°31' W 094°53'3 6.2
2017-Nov-12 08:31N 29°33' W 094°55'3 6.5
2017-Nov-12 08:00N 29°36' W 094°57'4 6.5
2017-Nov-12 07:21N 29°40' W 094°59'2 6.0
2017-Nov-12 06:59N 29°42' W 094°60'3 5.0
2017-Nov-12 06:28N 29°44' W 095°02'2 4.2
2017-Nov-12 06:00N 29°45' W 095°04'2 2.3
2017-Nov-12 05:10N 29°46' W 095°06'0 0.7
2017-Nov-12 05:00N 29°46' W 095°06'0 0.2
2017-Nov-12 04:07N 29°46' W 095°05'0 0.0
2017-Nov-12 03:45N 29°46' W 095°05'2 0.3
2017-Nov-11 20:32N 29°44' W 095°03'0 6.5
2017-Nov-11 20:29N 29°44' W 095°03'3 5.2
2017-Nov-11 20:00N 29°42' W 095°01'3 5.9
2017-Nov-11 19:31N 29°40' W 094°59'3 6.6
2017-Nov-11 19:00N 29°37' W 094°57'3 6.6
2017-Nov-11 18:31N 29°34' W 094°56'3 6.5
2017-Nov-11 18:01N 29°32' W 094°53'2 0.0
2017-Nov-10 07:02N 29°30' W 094°53'0 5.3
2017-Nov-10 06:58N 29°31' W 094°53'2 4.8
2017-Nov-10 06:30N 29°33' W 094°54'2 4.4
2017-Nov-10 06:01N 29°34' W 094°56'2 4.7
2017-Nov-10 05:30N 29°36' W 094°57'2 4.6
2017-Nov-10 04:59N 29°39' W 094°58'2 4.0
2017-Nov-10 04:31N 29°40' W 094°59'2 3.8
2017-Nov-10 03:58N 29°42' W 095°00'2 3.7
2017-Nov-10 03:22N 29°44' W 095°02'2 4.1
2017-Nov-10 02:52N 29°45' W 095°04'1 0.2
2017-Nov-09 19:17N 29°46' W 095°05'1 4.3
2017-Nov-09 18:57N 29°45' W 095°04'3 5.6
2017-Nov-09 18:30N 29°43' W 095°01'3 5.2
2017-Nov-09 18:01N 29°41' W 094°59'3 6.1
2017-Nov-09 17:31N 29°39' W 094°58'3 6.5
2017-Nov-09 17:00N 29°36' W 094°56'3 6.5
2017-Nov-09 16:30N 29°33' W 094°54'4 0.1
2017-Nov-07 21:01N 29°30' W 094°52'0 5.7
2017-Nov-07 21:00N 29°30' W 094°52'3 5.8
2017-Nov-07 20:31N 29°32' W 094°54'3 5.5
2017-Nov-07 20:00N 29°34' W 094°56'3 5.4
2017-Nov-07 19:31N 29°37' W 094°57'4 5.6
2017-Nov-07 18:52N 29°40' W 094°59'3 5.7
2017-Nov-07 18:24N 29°42' W 095°01'  
Track history (hours):
 
Tides and Currents Weather Stations Pressure Air Temp Water Temp Dewpoint Dewpoint Depression Visibility Wind Speed Wind Dir Waves Ship Positions

Lady Of Lourdes

Owner: Marquette Transportation Company Gulf-Inland, LLC, Jefferson, LA. More information available from US FCC via Universal Licensing System and Coast Guard Vessel Documentation Center.

Last reported at 2017-Nov-17 14:25 UTC. Time now 2017-Nov-18 06:19 UTC.
Position N 30°04' W 093°36'.

Length 115 m; draft 3 m.

Type: . MMSI: 367367530.

Date/timePositionNaut miles runAvg speedWind from/ knotsBaromVisibWave heightAir tempDewpointWater temp
2017-Nov-17 14:25N 30°04' W 093°36'3 6.4
2017-Nov-17 14:00N 30°04' W 093°33'3 6.4
2017-Nov-17 13:30N 30°04' W 093°29'3 6.4
2017-Nov-17 13:00N 30°04' W 093°26'3 6.1
2017-Nov-17 12:30N 30°04' W 093°22'0 0.1
2017-Nov-17 12:00N 30°04' W 093°22'1 1.4
2017-Nov-17 11:30N 30°04' W 093°22'0 0.0
2017-Nov-17 11:00N 30°04' W 093°22'0 0.1
2017-Nov-17 10:30N 30°04' W 093°22'1 2.1
2017-Nov-17 10:00N 30°04' W 093°23'3 5.8
2017-Nov-17 09:30N 30°04' W 093°26'3 5.3
2017-Nov-17 09:00N 30°04' W 093°29'80 4.1
2017-Nov-16 13:34N 29°30' W 094°52'0 6.8
2017-Nov-16 13:30N 29°30' W 094°52'3 6.9
2017-Nov-16 13:00N 29°33' W 094°55'3 6.6
2017-Nov-16 12:30N 29°36' W 094°57'4 6.6
2017-Nov-16 11:50N 29°40' W 094°58'2 6.9
2017-Nov-16 11:30N 29°42' W 094°60'7 3.4
2017-Nov-16 09:34N 29°47' W 095°05'0 0.0
2017-Nov-16 09:21N 29°47' W 095°05'1 0.8
2017-Nov-16 08:01N 29°46' W 095°05'0 5.1
2017-Nov-16 08:00N 29°46' W 095°05'0 0.0
2017-Nov-16 04:12N 29°46' W 095°05'1 1.0
2017-Nov-16 03:09N 29°47' W 095°05'0 0.0
2017-Nov-16 03:00N 29°47' W 095°05'3 3.1
2017-Nov-16 02:07N 29°44' W 095°03'2 5.6
2017-Nov-16 01:49N 29°44' W 095°02'2 5.4
2017-Nov-16 01:30N 29°42' W 095°01'3 5.6
2017-Nov-16 01:00N 29°40' W 094°59'3 5.8
2017-Nov-16 00:30N 29°38' W 094°58'3 6.7
2017-Nov-16 00:00N 29°35' W 094°56'3 6.9
2017-Nov-15 23:30N 29°32' W 094°53'73 3.3
2017-Nov-15 01:36N 30°04' W 093°37'1 5.5
2017-Nov-15 01:30N 30°04' W 093°37'3 5.5
2017-Nov-15 01:00N 30°04' W 093°34'3 5.6
2017-Nov-15 00:30N 30°04' W 093°30'3 5.6
2017-Nov-15 00:00N 30°04' W 093°27'3 5.7
2017-Nov-14 23:30N 30°04' W 093°24'2 4.5
2017-Nov-14 23:00N 30°04' W 093°21'0 0.0
2017-Nov-14 22:30N 30°04' W 093°21'1 1.7
2017-Nov-14 22:00N 30°04' W 093°22'1 2.3
2017-Nov-14 21:30N 30°04' W 093°24'2 3.9
2017-Nov-14 21:00N 30°04' W 093°26'2 4.2
2017-Nov-14 20:30N 30°04' W 093°28'3 5.3
2017-Nov-14 20:00N 30°04' W 093°31'78 3.7
2017-Nov-13 23:04N 29°29' W 094°52'1 7.2
2017-Nov-13 22:59N 29°30' W 094°52'3 7.2
2017-Nov-13 22:30N 29°32' W 094°54'4 7.5
2017-Nov-13 22:00N 29°36' W 094°57'8 0.2
2017-Nov-12 09:19N 29°29' W 094°52'2 6.4
2017-Nov-12 09:01N 29°31' W 094°53'3 6.2
2017-Nov-12 08:31N 29°33' W 094°55'3 6.5
2017-Nov-12 08:00N 29°36' W 094°57'4 6.5
2017-Nov-12 07:21N 29°40' W 094°59'2 6.0
2017-Nov-12 06:59N 29°42' W 094°60'3 5.0
2017-Nov-12 06:28N 29°44' W 095°02'2 4.2
2017-Nov-12 06:00N 29°45' W 095°04'2 2.3
2017-Nov-12 05:10N 29°46' W 095°06'0 0.7
2017-Nov-12 05:00N 29°46' W 095°06'0 0.2
2017-Nov-12 04:07N 29°46' W 095°05'0 0.0
2017-Nov-12 03:45N 29°46' W 095°05'2 0.3
2017-Nov-11 20:32N 29°44' W 095°03'0 6.5
2017-Nov-11 20:29N 29°44' W 095°03'3 5.2
2017-Nov-11 20:00N 29°42' W 095°01'3 5.9
2017-Nov-11 19:31N 29°40' W 094°59'3 6.6
2017-Nov-11 19:00N 29°37' W 094°57'3 6.6
2017-Nov-11 18:31N 29°34' W 094°56'3 6.5
2017-Nov-11 18:01N 29°32' W 094°53'2 0.0
2017-Nov-10 07:02N 29°30' W 094°53'0 5.3
2017-Nov-10 06:58N 29°31' W 094°53'2 4.8
2017-Nov-10 06:30N 29°33' W 094°54'2 4.4
2017-Nov-10 06:01N 29°34' W 094°56'2 4.7
2017-Nov-10 05:30N 29°36' W 094°57'2 4.6
2017-Nov-10 04:59N 29°39' W 094°58'2 4.0
2017-Nov-10 04:31N 29°40' W 094°59'2 3.8
2017-Nov-10 03:58N 29°42' W 095°00'2 3.7
2017-Nov-10 03:22N 29°44' W 095°02'2 4.1
2017-Nov-10 02:52N 29°45' W 095°04'1 0.2
2017-Nov-09 19:17N 29°46' W 095°05'1 4.3
2017-Nov-09 18:57N 29°45' W 095°04'3 5.6
2017-Nov-09 18:30N 29°43' W 095°01'3 5.2
2017-Nov-09 18:01N 29°41' W 094°59'3 6.1
2017-Nov-09 17:31N 29°39' W 094°58'3 6.5
2017-Nov-09 17:00N 29°36' W 094°56'3 6.5
2017-Nov-09 16:30N 29°33' W 094°54'4 0.1
2017-Nov-07 21:01N 29°30' W 094°52'0 5.7
2017-Nov-07 21:00N 29°30' W 094°52'3 5.8
2017-Nov-07 20:31N 29°32' W 094°54'3 5.5
2017-Nov-07 20:00N 29°34' W 094°56'3 5.4
2017-Nov-07 19:31N 29°37' W 094°57'4 5.6
2017-Nov-07 18:52N 29°40' W 094°59'3 5.7
2017-Nov-07 18:24N 29°42' W 095°01'  

Dump ship's entire track history